sensor_id;sensor_type;location;lat;lon;timestamp;P1;durP1;ratioP1;P2;durP2;ratioP2
35969;SDS011;22448;51.298;6.430;2022-11-15T00:01:30;27.38;;;18.23;;
35969;SDS011;22448;51.298;6.430;2022-11-15T00:04:15;29.70;;;17.98;;
35969;SDS011;22448;51.298;6.430;2022-11-15T00:07:01;34.97;;;18.65;;
35969;SDS011;22448;51.298;6.430;2022-11-15T00:09:47;28.23;;;18.50;;
35969;SDS011;22448;51.298;6.430;2022-11-15T00:12:32;27.63;;;18.20;;
35969;SDS011;22448;51.298;6.430;2022-11-15T00:15:18;32.33;;;19.13;;
35969;SDS011;22448;51.298;6.430;2022-11-15T00:18:04;30.77;;;18.73;;
35969;SDS011;22448;51.298;6.430;2022-11-15T00:20:50;31.67;;;18.42;;
35969;SDS011;22448;51.298;6.430;2022-11-15T00:23:36;26.88;;;18.23;;
35969;SDS011;22448;51.298;6.430;2022-11-15T00:26:22;28.77;;;18.58;;
35969;SDS011;22448;51.298;6.430;2022-11-15T00:29:08;31.50;;;17.88;;
35969;SDS011;22448;51.298;6.430;2022-11-15T00:31:53;34.50;;;18.83;;
35969;SDS011;22448;51.298;6.430;2022-11-15T00:34:39;32.47;;;17.80;;
35969;SDS011;22448;51.298;6.430;2022-11-15T00:37:24;29.77;;;17.90;;
35969;SDS011;22448;51.298;6.430;2022-11-15T00:40:10;30.23;;;18.23;;
35969;SDS011;22448;51.298;6.430;2022-11-15T00:42:57;33.60;;;18.95;;
35969;SDS011;22448;51.298;6.430;2022-11-15T00:45:43;28.63;;;18.25;;
35969;SDS011;22448;51.298;6.430;2022-11-15T00:48:29;28.20;;;18.45;;
35969;SDS011;22448;51.298;6.430;2022-11-15T00:51:15;28.85;;;17.63;;
35969;SDS011;22448;51.298;6.430;2022-11-15T00:54:00;31.40;;;18.98;;
35969;SDS011;22448;51.298;6.430;2022-11-15T00:56:46;32.40;;;18.23;;
35969;SDS011;22448;51.298;6.430;2022-11-15T00:59:32;31.10;;;18.63;;
35969;SDS011;22448;51.298;6.430;2022-11-15T01:02:17;30.77;;;18.58;;
35969;SDS011;22448;51.298;6.430;2022-11-15T01:05:03;29.80;;;18.77;;
35969;SDS011;22448;51.298;6.430;2022-11-15T01:07:52;31.30;;;19.25;;
35969;SDS011;22448;51.298;6.430;2022-11-15T01:10:38;28.80;;;17.90;;
35969;SDS011;22448;51.298;6.430;2022-11-15T01:13:24;30.92;;;17.65;;
35969;SDS011;22448;51.298;6.430;2022-11-15T01:16:14;32.25;;;19.75;;
35969;SDS011;22448;51.298;6.430;2022-11-15T01:19:02;30.10;;;18.58;;
35969;SDS011;22448;51.298;6.430;2022-11-15T01:21:49;28.40;;;17.98;;
35969;SDS011;22448;51.298;6.430;2022-11-15T01:24:35;30.27;;;17.70;;
35969;SDS011;22448;51.298;6.430;2022-11-15T01:27:21;29.02;;;18.10;;
35969;SDS011;22448;51.298;6.430;2022-11-15T01:30:06;27.33;;;18.58;;
35969;SDS011;22448;51.298;6.430;2022-11-15T01:32:53;28.67;;;17.40;;
35969;SDS011;22448;51.298;6.430;2022-11-15T01:35:39;30.15;;;18.60;;
35969;SDS011;22448;51.298;6.430;2022-11-15T01:38:25;34.17;;;20.02;;
35969;SDS011;22448;51.298;6.430;2022-11-15T01:41:23;30.88;;;20.02;;
35969;SDS011;22448;51.298;6.430;2022-11-15T01:44:34;30.05;;;19.25;;
35969;SDS011;22448;51.298;6.430;2022-11-15T01:47:28;29.80;;;18.60;;
35969;SDS011;22448;51.298;6.430;2022-11-15T01:50:24;33.85;;;18.65;;
35969;SDS011;22448;51.298;6.430;2022-11-15T01:53:14;32.08;;;19.27;;
35969;SDS011;22448;51.298;6.430;2022-11-15T01:56:04;30.80;;;19.65;;
35969;SDS011;22448;51.298;6.430;2022-11-15T01:58:52;30.02;;;18.85;;
35969;SDS011;22448;51.298;6.430;2022-11-15T02:01:40;39.58;;;20.42;;
35969;SDS011;22448;51.298;6.430;2022-11-15T02:04:28;32.80;;;18.48;;
35969;SDS011;22448;51.298;6.430;2022-11-15T02:07:16;30.88;;;18.15;;
35969;SDS011;22448;51.298;6.430;2022-11-15T02:10:07;35.17;;;18.23;;
35969;SDS011;22448;51.298;6.430;2022-11-15T02:12:55;27.08;;;18.48;;
35969;SDS011;22448;51.298;6.430;2022-11-15T02:15:58;25.50;;;17.05;;
35969;SDS011;22448;51.298;6.430;2022-11-15T02:19:07;28.25;;;17.92;;
35969;SDS011;22448;51.298;6.430;2022-11-15T02:22:24;26.13;;;16.38;;
35969;SDS011;22448;51.298;6.430;2022-11-15T02:28:44;27.75;;;16.50;;
35969;SDS011;22448;51.298;6.430;2022-11-15T02:31:51;25.90;;;15.20;;
35969;SDS011;22448;51.298;6.430;2022-11-15T02:38:07;30.38;;;17.23;;
35969;SDS011;22448;51.298;6.430;2022-11-15T02:44:12;24.13;;;16.02;;
35969;SDS011;22448;51.298;6.430;2022-11-15T02:47:04;24.92;;;16.02;;
35969;SDS011;22448;51.298;6.430;2022-11-15T02:52:49;29.38;;;16.58;;
35969;SDS011;22448;51.298;6.430;2022-11-15T02:55:36;31.77;;;17.67;;
35969;SDS011;22448;51.298;6.430;2022-11-15T03:01:47;25.80;;;17.58;;
35969;SDS011;22448;51.298;6.430;2022-11-15T03:04:41;30.23;;;17.52;;
35969;SDS011;22448;51.298;6.430;2022-11-15T03:07:35;27.08;;;16.98;;
35969;SDS011;22448;51.298;6.430;2022-11-15T03:13:34;26.88;;;15.63;;
35969;SDS011;22448;51.298;6.430;2022-11-15T03:22:21;20.73;;;14.73;;
35969;SDS011;22448;51.298;6.430;2022-11-15T03:25:09;19.50;;;13.95;;
35969;SDS011;22448;51.298;6.430;2022-11-15T03:27:59;23.48;;;14.38;;
35969;SDS011;22448;51.298;6.430;2022-11-15T03:30:49;22.63;;;14.60;;
35969;SDS011;22448;51.298;6.430;2022-11-15T03:33:38;26.00;;;15.30;;
35969;SDS011;22448;51.298;6.430;2022-11-15T03:36:25;24.05;;;13.57;;
35969;SDS011;22448;51.298;6.430;2022-11-15T03:39:12;23.90;;;14.32;;
35969;SDS011;22448;51.298;6.430;2022-11-15T03:44:59;23.23;;;13.45;;
35969;SDS011;22448;51.298;6.430;2022-11-15T03:48:21;20.15;;;14.63;;
35969;SDS011;22448;51.298;6.430;2022-11-15T03:51:10;24.40;;;14.35;;
35969;SDS011;22448;51.298;6.430;2022-11-15T03:53:56;23.60;;;13.63;;
35969;SDS011;22448;51.298;6.430;2022-11-15T03:56:41;26.42;;;14.10;;
35969;SDS011;22448;51.298;6.430;2022-11-15T03:59:27;24.98;;;13.63;;
35969;SDS011;22448;51.298;6.430;2022-11-15T04:02:13;22.55;;;13.95;;
35969;SDS011;22448;51.298;6.430;2022-11-15T04:04:59;22.65;;;13.93;;
35969;SDS011;22448;51.298;6.430;2022-11-15T04:07:44;21.95;;;14.40;;
35969;SDS011;22448;51.298;6.430;2022-11-15T04:10:30;22.02;;;14.52;;
35969;SDS011;22448;51.298;6.430;2022-11-15T04:13:16;25.85;;;15.52;;
35969;SDS011;22448;51.298;6.430;2022-11-15T04:16:02;25.83;;;16.38;;
35969;SDS011;22448;51.298;6.430;2022-11-15T04:18:48;31.08;;;17.40;;
35969;SDS011;22448;51.298;6.430;2022-11-15T04:21:53;26.40;;;16.33;;
35969;SDS011;22448;51.298;6.430;2022-11-15T04:24:58;27.42;;;16.48;;
35969;SDS011;22448;51.298;6.430;2022-11-15T04:27:43;22.88;;;16.92;;
35969;SDS011;22448;51.298;6.430;2022-11-15T04:30:29;28.35;;;18.02;;
35969;SDS011;22448;51.298;6.430;2022-11-15T04:33:14;26.33;;;17.40;;
35969;SDS011;22448;51.298;6.430;2022-11-15T04:36:00;30.05;;;19.02;;
35969;SDS011;22448;51.298;6.430;2022-11-15T04:39:04;33.53;;;19.15;;
35969;SDS011;22448;51.298;6.430;2022-11-15T04:41:50;29.50;;;18.95;;
35969;SDS011;22448;51.298;6.430;2022-11-15T04:44:36;26.70;;;18.42;;
35969;SDS011;22448;51.298;6.430;2022-11-15T04:47:22;27.73;;;17.67;;
35969;SDS011;22448;51.298;6.430;2022-11-15T04:50:07;29.77;;;18.40;;
35969;SDS011;22448;51.298;6.430;2022-11-15T04:52:53;28.77;;;18.95;;
35969;SDS011;22448;51.298;6.430;2022-11-15T04:55:39;28.33;;;18.23;;
35969;SDS011;22448;51.298;6.430;2022-11-15T04:58:25;34.92;;;19.85;;
35969;SDS011;22448;51.298;6.430;2022-11-15T05:01:12;29.27;;;18.75;;
35969;SDS011;22448;51.298;6.430;2022-11-15T05:03:59;27.60;;;18.35;;
35969;SDS011;22448;51.298;6.430;2022-11-15T05:07:03;30.00;;;18.95;;
35969;SDS011;22448;51.298;6.430;2022-11-15T05:09:49;27.13;;;18.33;;
35969;SDS011;22448;51.298;6.430;2022-11-15T05:12:35;30.98;;;18.50;;
35969;SDS011;22448;51.298;6.430;2022-11-15T05:15:21;28.85;;;18.45;;
35969;SDS011;22448;51.298;6.430;2022-11-15T05:18:06;29.95;;;19.35;;
35969;SDS011;22448;51.298;6.430;2022-11-15T05:20:52;32.50;;;18.85;;
35969;SDS011;22448;51.298;6.430;2022-11-15T05:23:38;29.50;;;18.85;;
35969;SDS011;22448;51.298;6.430;2022-11-15T05:26:23;31.85;;;19.65;;
35969;SDS011;22448;51.298;6.430;2022-11-15T05:29:09;31.85;;;18.70;;
35969;SDS011;22448;51.298;6.430;2022-11-15T05:31:56;28.00;;;18.42;;
35969;SDS011;22448;51.298;6.430;2022-11-15T05:34:42;25.75;;;18.13;;
35969;SDS011;22448;51.298;6.430;2022-11-15T05:37:28;34.33;;;17.75;;
35969;SDS011;22448;51.298;6.430;2022-11-15T05:40:14;30.05;;;17.38;;
35969;SDS011;22448;51.298;6.430;2022-11-15T05:43:00;25.67;;;16.85;;
35969;SDS011;22448;51.298;6.430;2022-11-15T05:45:48;28.05;;;17.02;;
35969;SDS011;22448;51.298;6.430;2022-11-15T05:48:34;23.05;;;15.93;;
35969;SDS011;22448;51.298;6.430;2022-11-15T05:51:22;25.70;;;15.57;;
35969;SDS011;22448;51.298;6.430;2022-11-15T05:54:08;30.23;;;15.82;;
35969;SDS011;22448;51.298;6.430;2022-11-15T05:56:55;22.75;;;15.15;;
35969;SDS011;22448;51.298;6.430;2022-11-15T05:59:41;24.40;;;15.70;;
35969;SDS011;22448;51.298;6.430;2022-11-15T06:02:28;26.63;;;16.77;;
35969;SDS011;22448;51.298;6.430;2022-11-15T06:05:13;24.48;;;14.80;;
35969;SDS011;22448;51.298;6.430;2022-11-15T06:07:59;23.58;;;15.85;;
35969;SDS011;22448;51.298;6.430;2022-11-15T06:10:45;23.45;;;14.57;;
35969;SDS011;22448;51.298;6.430;2022-11-15T06:13:30;21.23;;;13.00;;
35969;SDS011;22448;51.298;6.430;2022-11-15T06:16:16;22.08;;;13.10;;
35969;SDS011;22448;51.298;6.430;2022-11-15T06:19:02;19.98;;;12.75;;
35969;SDS011;22448;51.298;6.430;2022-11-15T06:21:47;21.17;;;12.27;;
35969;SDS011;22448;51.298;6.430;2022-11-15T06:24:33;17.50;;;12.02;;
35969;SDS011;22448;51.298;6.430;2022-11-15T06:27:19;26.20;;;12.15;;
35969;SDS011;22448;51.298;6.430;2022-11-15T06:30:04;14.50;;;10.82;;
35969;SDS011;22448;51.298;6.430;2022-11-15T06:32:50;23.50;;;13.25;;
35969;SDS011;22448;51.298;6.430;2022-11-15T06:35:37;23.15;;;13.00;;
35969;SDS011;22448;51.298;6.430;2022-11-15T06:38:22;25.92;;;13.80;;
35969;SDS011;22448;51.298;6.430;2022-11-15T06:41:09;23.77;;;13.80;;
35969;SDS011;22448;51.298;6.430;2022-11-15T06:43:56;24.88;;;13.88;;
35969;SDS011;22448;51.298;6.430;2022-11-15T06:46:42;17.50;;;10.73;;
35969;SDS011;22448;51.298;6.430;2022-11-15T06:49:28;18.25;;;10.30;;
35969;SDS011;22448;51.298;6.430;2022-11-15T06:52:13;14.82;;;9.07;;
35969;SDS011;22448;51.298;6.430;2022-11-15T06:54:59;13.35;;;8.55;;
35969;SDS011;22448;51.298;6.430;2022-11-15T06:57:51;11.98;;;8.15;;
35969;SDS011;22448;51.298;6.430;2022-11-15T07:00:37;11.00;;;6.75;;
35969;SDS011;22448;51.298;6.430;2022-11-15T07:03:23;9.35;;;5.55;;
35969;SDS011;22448;51.298;6.430;2022-11-15T07:06:09;7.03;;;4.68;;
35969;SDS011;22448;51.298;6.430;2022-11-15T07:08:55;5.05;;;3.92;;
35969;SDS011;22448;51.298;6.430;2022-11-15T07:11:40;6.70;;;3.95;;
35969;SDS011;22448;51.298;6.430;2022-11-15T07:14:26;11.52;;;3.53;;
35969;SDS011;22448;51.298;6.430;2022-11-15T07:17:11;12.85;;;3.45;;
35969;SDS011;22448;51.298;6.430;2022-11-15T07:19:57;6.68;;;2.85;;
35969;SDS011;22448;51.298;6.430;2022-11-15T07:22:43;4.53;;;2.58;;
35969;SDS011;22448;51.298;6.430;2022-11-15T07:25:32;4.57;;;2.65;;
35969;SDS011;22448;51.298;6.430;2022-11-15T07:28:18;3.83;;;2.22;;
35969;SDS011;22448;51.298;6.430;2022-11-15T07:31:04;3.60;;;2.15;;
35969;SDS011;22448;51.298;6.430;2022-11-15T07:33:53;4.75;;;2.33;;
35969;SDS011;22448;51.298;6.430;2022-11-15T07:36:39;5.10;;;2.60;;
35969;SDS011;22448;51.298;6.430;2022-11-15T07:39:24;3.47;;;2.33;;
35969;SDS011;22448;51.298;6.430;2022-11-15T07:42:09;4.53;;;2.63;;
35969;SDS011;22448;51.298;6.430;2022-11-15T07:45:14;3.83;;;2.05;;
35969;SDS011;22448;51.298;6.430;2022-11-15T07:48:00;4.55;;;2.38;;
35969;SDS011;22448;51.298;6.430;2022-11-15T07:50:45;3.38;;;2.13;;
35969;SDS011;22448;51.298;6.430;2022-11-15T07:53:31;3.92;;;2.00;;
35969;SDS011;22448;51.298;6.430;2022-11-15T07:56:17;5.15;;;2.40;;
35969;SDS011;22448;51.298;6.430;2022-11-15T07:59:03;4.13;;;2.42;;
35969;SDS011;22448;51.298;6.430;2022-11-15T08:01:48;3.88;;;2.10;;
35969;SDS011;22448;51.298;6.430;2022-11-15T08:04:34;7.45;;;2.72;;
35969;SDS011;22448;51.298;6.430;2022-11-15T08:07:20;8.38;;;2.50;;
35969;SDS011;22448;51.298;6.430;2022-11-15T08:10:05;7.82;;;2.60;;
35969;SDS011;22448;51.298;6.430;2022-11-15T08:12:59;3.92;;;2.30;;
35969;SDS011;22448;51.298;6.430;2022-11-15T08:15:47;9.57;;;2.58;;
35969;SDS011;22448;51.298;6.430;2022-11-15T08:18:40;5.28;;;2.55;;
35969;SDS011;22448;51.298;6.430;2022-11-15T08:21:26;6.55;;;3.22;;
35969;SDS011;22448;51.298;6.430;2022-11-15T08:24:12;13.70;;;3.63;;
35969;SDS011;22448;51.298;6.430;2022-11-15T08:26:57;6.60;;;2.65;;
35969;SDS011;22448;51.298;6.430;2022-11-15T08:29:43;6.35;;;2.05;;
35969;SDS011;22448;51.298;6.430;2022-11-15T08:32:30;5.07;;;2.00;;
35969;SDS011;22448;51.298;6.430;2022-11-15T08:35:16;5.07;;;1.75;;
35969;SDS011;22448;51.298;6.430;2022-11-15T08:38:03;2.75;;;1.83;;
35969;SDS011;22448;51.298;6.430;2022-11-15T08:40:48;3.97;;;1.50;;
35969;SDS011;22448;51.298;6.430;2022-11-15T08:43:37;4.78;;;1.63;;
35969;SDS011;22448;51.298;6.430;2022-11-15T08:46:22;6.28;;;2.00;;
35969;SDS011;22448;51.298;6.430;2022-11-15T08:49:08;5.63;;;1.67;;
35969;SDS011;22448;51.298;6.430;2022-11-15T08:51:54;3.58;;;1.67;;
35969;SDS011;22448;51.298;6.430;2022-11-15T08:54:39;3.35;;;1.73;;
35969;SDS011;22448;51.298;6.430;2022-11-15T08:57:27;3.05;;;1.60;;
35969;SDS011;22448;51.298;6.430;2022-11-15T09:00:14;2.95;;;1.23;;
35969;SDS011;22448;51.298;6.430;2022-11-15T09:03:03;5.55;;;1.67;;
35969;SDS011;22448;51.298;6.430;2022-11-15T09:05:53;4.82;;;1.85;;
35969;SDS011;22448;51.298;6.430;2022-11-15T09:08:43;3.40;;;1.80;;
35969;SDS011;22448;51.298;6.430;2022-11-15T09:11:32;5.45;;;1.80;;
35969;SDS011;22448;51.298;6.430;2022-11-15T09:14:18;4.03;;;2.10;;
35969;SDS011;22448;51.298;6.430;2022-11-15T09:17:06;4.55;;;2.20;;
35969;SDS011;22448;51.298;6.430;2022-11-15T09:19:53;10.27;;;1.85;;
35969;SDS011;22448;51.298;6.430;2022-11-15T09:22:39;2.55;;;1.45;;
35969;SDS011;22448;51.298;6.430;2022-11-15T09:25:24;6.05;;;1.63;;
35969;SDS011;22448;51.298;6.430;2022-11-15T09:28:10;4.72;;;1.50;;
35969;SDS011;22448;51.298;6.430;2022-11-15T09:30:59;5.45;;;1.92;;
35969;SDS011;22448;51.298;6.430;2022-11-15T09:33:46;3.78;;;1.42;;
35969;SDS011;22448;51.298;6.430;2022-11-15T09:36:32;3.58;;;1.10;;
35969;SDS011;22448;51.298;6.430;2022-11-15T09:39:17;4.70;;;1.40;;
35969;SDS011;22448;51.298;6.430;2022-11-15T09:51:00;3.50;;;1.10;;
35969;SDS011;22448;51.298;6.430;2022-11-15T09:53:47;5.90;;;1.70;;
35969;SDS011;22448;51.298;6.430;2022-11-15T09:56:47;5.32;;;1.10;;
35969;SDS011;22448;51.298;6.430;2022-11-15T09:59:21;4.53;;;1.30;;
35969;SDS011;22448;51.298;6.430;2022-11-15T10:04:34;2.83;;;1.15;;
35969;SDS011;22448;51.298;6.430;2022-11-15T10:07:20;4.32;;;1.70;;
35969;SDS011;22448;51.298;6.430;2022-11-15T10:10:02;3.55;;;1.75;;
35969;SDS011;22448;51.298;6.430;2022-11-15T10:12:37;6.65;;;1.90;;
35969;SDS011;22448;51.298;6.430;2022-11-15T10:15:14;5.70;;;1.92;;
35969;SDS011;22448;51.298;6.430;2022-11-15T10:22:56;5.07;;;2.63;;
35969;SDS011;22448;51.298;6.430;2022-11-15T10:25:28;4.57;;;2.42;;
35969;SDS011;22448;51.298;6.430;2022-11-15T10:27:57;4.95;;;2.75;;
35969;SDS011;22448;51.298;6.430;2022-11-15T10:30:34;6.03;;;2.38;;
35969;SDS011;22448;51.298;6.430;2022-11-15T10:33:10;8.18;;;2.20;;
35969;SDS011;22448;51.298;6.430;2022-11-15T10:43:46;6.07;;;1.63;;
35969;SDS011;22448;51.298;6.430;2022-11-15T10:46:28;6.82;;;1.73;;
35969;SDS011;22448;51.298;6.430;2022-11-15T10:51:45;6.05;;;1.30;;
35969;SDS011;22448;51.298;6.430;2022-11-15T10:54:17;7.90;;;1.10;;
35969;SDS011;22448;51.298;6.430;2022-11-15T10:56:58;5.47;;;1.40;;
35969;SDS011;22448;51.298;6.430;2022-11-15T10:59:28;5.25;;;1.20;;
35969;SDS011;22448;51.298;6.430;2022-11-15T11:04:50;3.97;;;1.25;;
35969;SDS011;22448;51.298;6.430;2022-11-15T11:07:28;3.72;;;1.33;;
35969;SDS011;22448;51.298;6.430;2022-11-15T11:09:58;9.35;;;1.33;;
35969;SDS011;22448;51.298;6.430;2022-11-15T11:12:28;2.80;;;1.10;;
35969;SDS011;22448;51.298;6.430;2022-11-15T11:15:01;5.40;;;1.20;;
35969;SDS011;22448;51.298;6.430;2022-11-15T11:17:43;3.58;;;1.17;;
35969;SDS011;22448;51.298;6.430;2022-11-15T11:28:42;3.55;;;1.23;;
35969;SDS011;22448;51.298;6.430;2022-11-15T11:37:31;3.88;;;1.30;;
35969;SDS011;22448;51.298;6.430;2022-11-15T11:48:51;11.80;;;1.30;;
35969;SDS011;22448;51.298;6.430;2022-11-15T11:51:49;8.80;;;1.50;;
35969;SDS011;22448;51.298;6.430;2022-11-15T11:54:24;9.27;;;1.52;;
35969;SDS011;22448;51.298;6.430;2022-11-15T11:57:00;6.65;;;1.70;;
35969;SDS011;22448;51.298;6.430;2022-11-15T11:59:46;4.78;;;1.30;;
35969;SDS011;22448;51.298;6.430;2022-11-15T12:02:37;10.30;;;1.10;;
35969;SDS011;22448;51.298;6.430;2022-11-15T12:05:13;8.45;;;1.65;;
35969;SDS011;22448;51.298;6.430;2022-11-15T12:07:42;3.95;;;1.15;;
35969;SDS011;22448;51.298;6.430;2022-11-15T12:10:21;3.88;;;1.33;;
35969;SDS011;22448;51.298;6.430;2022-11-15T12:12:56;5.10;;;1.30;;
35969;SDS011;22448;51.298;6.430;2022-11-15T12:15:35;6.45;;;1.15;;
35969;SDS011;22448;51.298;6.430;2022-11-15T12:18:08;4.90;;;1.40;;
35969;SDS011;22448;51.298;6.430;2022-11-15T12:20:41;10.25;;;1.63;;
35969;SDS011;22448;51.298;6.430;2022-11-15T12:23:38;6.57;;;1.52;;
35969;SDS011;22448;51.298;6.430;2022-11-15T12:26:15;4.50;;;1.00;;
35969;SDS011;22448;51.298;6.430;2022-11-15T12:29:05;10.43;;;1.17;;
35969;SDS011;22448;51.298;6.430;2022-11-15T12:31:40;8.55;;;1.15;;
35969;SDS011;22448;51.298;6.430;2022-11-15T12:36:47;7.43;;;1.20;;
35969;SDS011;22448;51.298;6.430;2022-11-15T12:39:16;5.70;;;1.15;;
35969;SDS011;22448;51.298;6.430;2022-11-15T12:47:31;10.98;;;1.58;;
35969;SDS011;22448;51.298;6.430;2022-11-15T12:49:58;6.95;;;1.35;;
35969;SDS011;22448;51.298;6.430;2022-11-15T12:52:24;4.00;;;0.95;;
35969;SDS011;22448;51.298;6.430;2022-11-15T12:54:53;8.55;;;1.35;;
35969;SDS011;22448;51.298;6.430;2022-11-15T12:57:29;7.65;;;1.48;;
35969;SDS011;22448;51.298;6.430;2022-11-15T13:02:50;6.15;;;1.25;;
35969;SDS011;22448;51.298;6.430;2022-11-15T13:08:14;5.45;;;1.08;;
35969;SDS011;22448;51.298;6.430;2022-11-15T13:13:50;5.20;;;1.08;;
35969;SDS011;22448;51.298;6.430;2022-11-15T13:16:17;5.20;;;0.95;;
35969;SDS011;22448;51.298;6.430;2022-11-15T13:18:53;7.68;;;1.58;;
35969;SDS011;22448;51.298;6.430;2022-11-15T13:21:22;5.05;;;1.08;;
35969;SDS011;22448;51.298;6.430;2022-11-15T13:24:10;9.07;;;1.00;;
35969;SDS011;22448;51.298;6.430;2022-11-15T13:26:39;6.60;;;0.93;;
35969;SDS011;22448;51.298;6.430;2022-11-15T13:29:14;5.53;;;0.93;;
35969;SDS011;22448;51.298;6.430;2022-11-15T13:31:43;5.32;;;1.02;;
35969;SDS011;22448;51.298;6.430;2022-11-15T13:34:16;5.53;;;1.13;;
35969;SDS011;22448;51.298;6.430;2022-11-15T13:37:11;3.13;;;0.82;;
35969;SDS011;22448;51.298;6.430;2022-11-15T13:43:25;5.50;;;0.82;;
35969;SDS011;22448;51.298;6.430;2022-11-15T13:46:09;6.30;;;1.42;;
35969;SDS011;22448;51.298;6.430;2022-11-15T13:48:41;12.15;;;1.50;;
35969;SDS011;22448;51.298;6.430;2022-11-15T13:54:20;4.65;;;1.40;;
35969;SDS011;22448;51.298;6.430;2022-11-15T13:56:57;6.13;;;1.23;;
35969;SDS011;22448;51.298;6.430;2022-11-15T13:59:35;10.70;;;1.67;;
35969;SDS011;22448;51.298;6.430;2022-11-15T14:02:14;8.32;;;2.00;;
35969;SDS011;22448;51.298;6.430;2022-11-15T14:04:51;14.32;;;6.45;;
35969;SDS011;22448;51.298;6.430;2022-11-15T14:07:26;11.93;;;4.53;;
35969;SDS011;22448;51.298;6.430;2022-11-15T14:09:57;14.85;;;2.35;;
35969;SDS011;22448;51.298;6.430;2022-11-15T14:12:25;8.63;;;2.05;;
35969;SDS011;22448;51.298;6.430;2022-11-15T14:14:58;8.70;;;2.05;;
35969;SDS011;22448;51.298;6.430;2022-11-15T14:19:57;6.65;;;1.63;;
35969;SDS011;22448;51.298;6.430;2022-11-15T14:22:25;10.63;;;1.95;;
35969;SDS011;22448;51.298;6.430;2022-11-15T14:25:38;8.15;;;1.90;;
35969;SDS011;22448;51.298;6.430;2022-11-15T14:30:34;5.10;;;1.98;;
35969;SDS011;22448;51.298;6.430;2022-11-15T14:33:01;8.48;;;2.38;;
35969;SDS011;22448;51.298;6.430;2022-11-15T14:35:41;9.48;;;1.48;;
35969;SDS011;22448;51.298;6.430;2022-11-15T14:38:08;7.28;;;1.77;;
35969;SDS011;22448;51.298;6.430;2022-11-15T14:40:35;11.85;;;1.67;;
35969;SDS011;22448;51.298;6.430;2022-11-15T14:43:02;5.93;;;1.60;;
35969;SDS011;22448;51.298;6.430;2022-11-15T14:45:29;5.22;;;1.70;;
35969;SDS011;22448;51.298;6.430;2022-11-15T14:48:05;4.45;;;1.65;;
35969;SDS011;22448;51.298;6.430;2022-11-15T14:50:33;8.32;;;1.75;;
35969;SDS011;22448;51.298;6.430;2022-11-15T14:53:01;4.32;;;1.70;;
35969;SDS011;22448;51.298;6.430;2022-11-15T14:55:32;10.98;;;2.22;;
35969;SDS011;22448;51.298;6.430;2022-11-15T14:58:02;10.82;;;2.00;;
35969;SDS011;22448;51.298;6.430;2022-11-15T15:00:30;11.30;;;2.00;;
35969;SDS011;22448;51.298;6.430;2022-11-15T15:03:01;16.15;;;4.00;;
35969;SDS011;22448;51.298;6.430;2022-11-15T15:05:35;10.88;;;2.72;;
35969;SDS011;22448;51.298;6.430;2022-11-15T15:08:05;5.55;;;2.42;;
35969;SDS011;22448;51.298;6.430;2022-11-15T15:10:39;5.45;;;1.90;;
35969;SDS011;22448;51.298;6.430;2022-11-15T15:15:46;9.98;;;3.13;;
35969;SDS011;22448;51.298;6.430;2022-11-15T15:18:14;8.60;;;2.33;;
35969;SDS011;22448;51.298;6.430;2022-11-15T15:20:41;5.78;;;3.13;;
35969;SDS011;22448;51.298;6.430;2022-11-15T15:23:15;6.60;;;2.70;;
35969;SDS011;22448;51.298;6.430;2022-11-15T15:25:46;6.38;;;3.08;;
35969;SDS011;22448;51.298;6.430;2022-11-15T15:28:15;14.05;;;2.90;;
35969;SDS011;22448;51.298;6.430;2022-11-15T15:30:41;9.77;;;2.90;;
35969;SDS011;22448;51.298;6.430;2022-11-15T15:33:08;9.05;;;4.30;;
35969;SDS011;22448;51.298;6.430;2022-11-15T15:35:35;7.43;;;3.13;;
35969;SDS011;22448;51.298;6.430;2022-11-15T15:38:03;8.95;;;4.07;;
35969;SDS011;22448;51.298;6.430;2022-11-15T15:40:31;7.13;;;3.28;;
35969;SDS011;22448;51.298;6.430;2022-11-15T15:42:59;8.48;;;3.78;;
35969;SDS011;22448;51.298;6.430;2022-11-15T15:45:26;10.07;;;4.03;;
35969;SDS011;22448;51.298;6.430;2022-11-15T15:47:54;6.70;;;4.13;;
35969;SDS011;22448;51.298;6.430;2022-11-15T15:50:28;6.93;;;3.95;;
35969;SDS011;22448;51.298;6.430;2022-11-15T15:52:59;8.05;;;3.30;;
35969;SDS011;22448;51.298;6.430;2022-11-15T15:55:27;13.25;;;3.95;;
35969;SDS011;22448;51.298;6.430;2022-11-15T15:57:54;7.65;;;3.40;;
35969;SDS011;22448;51.298;6.430;2022-11-15T16:00:22;4.13;;;3.03;;
35969;SDS011;22448;51.298;6.430;2022-11-15T16:02:51;6.50;;;3.10;;
35969;SDS011;22448;51.298;6.430;2022-11-15T16:05:19;13.98;;;3.97;;
35969;SDS011;22448;51.298;6.430;2022-11-15T16:07:46;6.20;;;2.95;;
35969;SDS011;22448;51.298;6.430;2022-11-15T16:10:21;7.65;;;3.03;;
35969;SDS011;22448;51.298;6.430;2022-11-15T16:12:51;10.27;;;3.80;;
35969;SDS011;22448;51.298;6.430;2022-11-15T16:15:19;8.50;;;3.63;;
35969;SDS011;22448;51.298;6.430;2022-11-15T16:17:51;6.80;;;3.08;;
35969;SDS011;22448;51.298;6.430;2022-11-15T16:20:29;6.88;;;2.80;;
35969;SDS011;22448;51.298;6.430;2022-11-15T16:22:55;6.90;;;3.65;;
35969;SDS011;22448;51.298;6.430;2022-11-15T16:25:22;10.30;;;4.97;;
35969;SDS011;22448;51.298;6.430;2022-11-15T16:27:49;12.43;;;5.65;;
35969;SDS011;22448;51.298;6.430;2022-11-15T16:30:18;14.30;;;3.95;;
35969;SDS011;22448;51.298;6.430;2022-11-15T16:32:47;9.27;;;3.13;;
35969;SDS011;22448;51.298;6.430;2022-11-15T16:35:14;7.20;;;3.15;;
35969;SDS011;22448;51.298;6.430;2022-11-15T16:37:42;7.60;;;3.42;;
35969;SDS011;22448;51.298;6.430;2022-11-15T16:42:57;6.70;;;3.38;;
35969;SDS011;22448;51.298;6.430;2022-11-15T16:45:25;6.10;;;2.70;;
35969;SDS011;22448;51.298;6.430;2022-11-15T16:47:55;6.10;;;2.95;;
35969;SDS011;22448;51.298;6.430;2022-11-15T16:50:23;9.35;;;3.00;;
35969;SDS011;22448;51.298;6.430;2022-11-15T16:52:55;11.65;;;3.38;;
35969;SDS011;22448;51.298;6.430;2022-11-15T16:55:24;7.72;;;2.75;;
35969;SDS011;22448;51.298;6.430;2022-11-15T16:57:53;5.65;;;2.45;;
35969;SDS011;22448;51.298;6.430;2022-11-15T17:00:23;9.35;;;2.90;;
35969;SDS011;22448;51.298;6.430;2022-11-15T17:02:51;4.65;;;2.70;;
35969;SDS011;22448;51.298;6.430;2022-11-15T17:05:19;7.30;;;2.80;;
35969;SDS011;22448;51.298;6.430;2022-11-15T17:07:48;7.10;;;2.83;;
35969;SDS011;22448;51.298;6.430;2022-11-15T17:10:17;6.78;;;3.22;;
35969;SDS011;22448;51.298;6.430;2022-11-15T17:12:44;10.23;;;3.78;;
35969;SDS011;22448;51.298;6.430;2022-11-15T17:15:11;6.57;;;2.10;;
35969;SDS011;22448;51.298;6.430;2022-11-15T17:17:39;6.13;;;2.50;;
35969;SDS011;22448;51.298;6.430;2022-11-15T17:20:14;6.97;;;2.60;;
35969;SDS011;22448;51.298;6.430;2022-11-15T17:22:43;5.93;;;2.90;;
35969;SDS011;22448;51.298;6.430;2022-11-15T17:25:10;6.05;;;3.13;;
35969;SDS011;22448;51.298;6.430;2022-11-15T17:27:37;6.20;;;3.00;;
35969;SDS011;22448;51.298;6.430;2022-11-15T17:30:04;6.15;;;2.58;;
35969;SDS011;22448;51.298;6.430;2022-11-15T17:32:35;9.93;;;3.03;;
35969;SDS011;22448;51.298;6.430;2022-11-15T17:35:03;5.63;;;2.70;;
35969;SDS011;22448;51.298;6.430;2022-11-15T17:37:40;6.13;;;2.42;;
35969;SDS011;22448;51.298;6.430;2022-11-15T17:40:07;7.47;;;3.22;;
35969;SDS011;22448;51.298;6.430;2022-11-15T17:42:35;9.27;;;2.97;;
35969;SDS011;22448;51.298;6.430;2022-11-15T17:45:02;12.23;;;5.25;;
35969;SDS011;22448;51.298;6.430;2022-11-15T17:47:35;5.97;;;4.20;;
35969;SDS011;22448;51.298;6.430;2022-11-15T17:50:02;7.07;;;3.45;;
35969;SDS011;22448;51.298;6.430;2022-11-15T17:52:29;8.35;;;3.53;;
35969;SDS011;22448;51.298;6.430;2022-11-15T17:54:56;9.10;;;3.60;;